sensor_id;sensor_type;location;lat;lon;timestamp;P1;durP1;ratioP1;P2;durP2;ratioP2
75639;SDS011;64233;51.486;6.332;2023-04-19T00:00:03;14.70;;;8.48;;
75639;SDS011;64233;51.486;6.332;2023-04-19T00:02:32;10.45;;;6.35;;
75639;SDS011;64233;51.486;6.332;2023-04-19T00:04:58;17.48;;;10.13;;
75639;SDS011;64233;51.486;6.332;2023-04-19T00:07:23;14.90;;;8.95;;
75639;SDS011;64233;51.486;6.332;2023-04-19T00:09:48;18.42;;;10.35;;
75639;SDS011;64233;51.486;6.332;2023-04-19T00:12:13;19.70;;;9.65;;
75639;SDS011;64233;51.486;6.332;2023-04-19T00:14:39;12.93;;;8.32;;
75639;SDS011;64233;51.486;6.332;2023-04-19T00:17:04;15.13;;;9.60;;
75639;SDS011;64233;51.486;6.332;2023-04-19T00:19:29;13.70;;;6.30;;
75639;SDS011;64233;51.486;6.332;2023-04-19T00:21:55;14.90;;;8.07;;
75639;SDS011;64233;51.486;6.332;2023-04-19T00:24:20;11.45;;;6.30;;
75639;SDS011;64233;51.486;6.332;2023-04-19T00:26:45;16.85;;;9.57;;
75639;SDS011;64233;51.486;6.332;2023-04-19T00:29:11;14.00;;;8.65;;
75639;SDS011;64233;51.486;6.332;2023-04-19T00:31:36;11.60;;;6.63;;
75639;SDS011;64233;51.486;6.332;2023-04-19T00:34:03;22.85;;;10.05;;
75639;SDS011;64233;51.486;6.332;2023-04-19T00:36:28;17.20;;;9.88;;
75639;SDS011;64233;51.486;6.332;2023-04-19T00:38:54;8.60;;;5.40;;
75639;SDS011;64233;51.486;6.332;2023-04-19T00:41:19;13.02;;;9.00;;
75639;SDS011;64233;51.486;6.332;2023-04-19T00:43:45;16.80;;;9.63;;
75639;SDS011;64233;51.486;6.332;2023-04-19T00:46:10;15.95;;;10.15;;
75639;SDS011;64233;51.486;6.332;2023-04-19T00:48:35;16.35;;;9.48;;
75639;SDS011;64233;51.486;6.332;2023-04-19T00:51:01;16.98;;;9.73;;
75639;SDS011;64233;51.486;6.332;2023-04-19T00:53:27;12.65;;;6.88;;
75639;SDS011;64233;51.486;6.332;2023-04-19T00:55:53;17.65;;;9.45;;
75639;SDS011;64233;51.486;6.332;2023-04-19T00:58:21;13.50;;;8.20;;
75639;SDS011;64233;51.486;6.332;2023-04-19T01:00:47;14.27;;;8.65;;
75639;SDS011;64233;51.486;6.332;2023-04-19T01:03:12;13.13;;;6.68;;
75639;SDS011;64233;51.486;6.332;2023-04-19T01:05:38;13.57;;;9.95;;
75639;SDS011;64233;51.486;6.332;2023-04-19T01:08:03;15.57;;;9.02;;
75639;SDS011;64233;51.486;6.332;2023-04-19T01:10:29;17.33;;;9.82;;
75639;SDS011;64233;51.486;6.332;2023-04-19T01:12:55;14.02;;;8.95;;
75639;SDS011;64233;51.486;6.332;2023-04-19T01:15:20;15.52;;;8.95;;
75639;SDS011;64233;51.486;6.332;2023-04-19T01:17:46;13.45;;;7.45;;
75639;SDS011;64233;51.486;6.332;2023-04-19T01:20:11;15.52;;;9.45;;
75639;SDS011;64233;51.486;6.332;2023-04-19T01:22:37;17.00;;;9.10;;
75639;SDS011;64233;51.486;6.332;2023-04-19T01:25:04;17.15;;;9.95;;
75639;SDS011;64233;51.486;6.332;2023-04-19T01:27:30;14.88;;;8.50;;
75639;SDS011;64233;51.486;6.332;2023-04-19T01:29:55;18.02;;;8.60;;
75639;SDS011;64233;51.486;6.332;2023-04-19T01:32:21;13.20;;;8.60;;
75639;SDS011;64233;51.486;6.332;2023-04-19T01:34:48;14.38;;;8.70;;
75639;SDS011;64233;51.486;6.332;2023-04-19T01:37:15;13.27;;;8.43;;
75639;SDS011;64233;51.486;6.332;2023-04-19T01:39:40;11.52;;;7.28;;
75639;SDS011;64233;51.486;6.332;2023-04-19T01:42:05;18.67;;;9.77;;
75639;SDS011;64233;51.486;6.332;2023-04-19T01:44:30;18.73;;;10.57;;
75639;SDS011;64233;51.486;6.332;2023-04-19T01:46:56;19.20;;;10.27;;
75639;SDS011;64233;51.486;6.332;2023-04-19T01:49:21;19.80;;;10.43;;
75639;SDS011;64233;51.486;6.332;2023-04-19T01:51:46;16.27;;;9.77;;
75639;SDS011;64233;51.486;6.332;2023-04-19T01:54:12;17.50;;;9.07;;
75639;SDS011;64233;51.486;6.332;2023-04-19T01:56:37;18.00;;;10.38;;
75639;SDS011;64233;51.486;6.332;2023-04-19T01:59:02;18.90;;;11.05;;
75639;SDS011;64233;51.486;6.332;2023-04-19T02:01:28;20.35;;;10.27;;
75639;SDS011;64233;51.486;6.332;2023-04-19T02:03:53;19.80;;;9.55;;
75639;SDS011;64233;51.486;6.332;2023-04-19T02:06:18;14.70;;;8.43;;
75639;SDS011;64233;51.486;6.332;2023-04-19T02:08:44;13.80;;;8.60;;
75639;SDS011;64233;51.486;6.332;2023-04-19T02:11:10;13.73;;;9.63;;
75639;SDS011;64233;51.486;6.332;2023-04-19T02:13:39;13.15;;;7.53;;
75639;SDS011;64233;51.486;6.332;2023-04-19T02:16:05;15.90;;;9.55;;
75639;SDS011;64233;51.486;6.332;2023-04-19T02:18:31;16.25;;;8.13;;
75639;SDS011;64233;51.486;6.332;2023-04-19T02:20:57;19.13;;;8.25;;
75639;SDS011;64233;51.486;6.332;2023-04-19T02:23:23;12.57;;;6.72;;
75639;SDS011;64233;51.486;6.332;2023-04-19T02:25:49;16.33;;;8.90;;
75639;SDS011;64233;51.486;6.332;2023-04-19T02:28:15;11.48;;;7.75;;
75639;SDS011;64233;51.486;6.332;2023-04-19T02:30:40;17.33;;;8.75;;
75639;SDS011;64233;51.486;6.332;2023-04-19T02:33:06;18.08;;;9.93;;
75639;SDS011;64233;51.486;6.332;2023-04-19T02:35:31;9.95;;;5.38;;
75639;SDS011;64233;51.486;6.332;2023-04-19T02:37:57;15.82;;;8.40;;
75639;SDS011;64233;51.486;6.332;2023-04-19T02:40:22;14.77;;;8.88;;
75639;SDS011;64233;51.486;6.332;2023-04-19T02:42:49;19.38;;;9.80;;
75639;SDS011;64233;51.486;6.332;2023-04-19T02:45:15;16.42;;;7.28;;
75639;SDS011;64233;51.486;6.332;2023-04-19T02:47:40;18.02;;;8.63;;
75639;SDS011;64233;51.486;6.332;2023-04-19T02:50:05;10.80;;;6.68;;
75639;SDS011;64233;51.486;6.332;2023-04-19T02:52:31;6.93;;;4.53;;
75639;SDS011;64233;51.486;6.332;2023-04-19T02:54:56;16.25;;;9.35;;
75639;SDS011;64233;51.486;6.332;2023-04-19T02:57:21;15.70;;;8.95;;
75639;SDS011;64233;51.486;6.332;2023-04-19T02:59:47;12.55;;;6.32;;
75639;SDS011;64233;51.486;6.332;2023-04-19T03:02:12;16.77;;;8.57;;
75639;SDS011;64233;51.486;6.332;2023-04-19T03:04:37;17.77;;;8.75;;
75639;SDS011;64233;51.486;6.332;2023-04-19T03:07:02;11.18;;;6.13;;
75639;SDS011;64233;51.486;6.332;2023-04-19T03:09:28;12.40;;;7.28;;
75639;SDS011;64233;51.486;6.332;2023-04-19T03:11:53;13.00;;;6.97;;
75639;SDS011;64233;51.486;6.332;2023-04-19T03:14:18;11.05;;;6.43;;
75639;SDS011;64233;51.486;6.332;2023-04-19T03:16:44;12.55;;;7.95;;
75639;SDS011;64233;51.486;6.332;2023-04-19T03:19:09;12.00;;;7.00;;
75639;SDS011;64233;51.486;6.332;2023-04-19T03:21:34;10.32;;;6.95;;
75639;SDS011;64233;51.486;6.332;2023-04-19T03:24:00;16.00;;;8.10;;
75639;SDS011;64233;51.486;6.332;2023-04-19T03:26:25;9.57;;;5.30;;
75639;SDS011;64233;51.486;6.332;2023-04-19T03:28:51;17.80;;;8.63;;
75639;SDS011;64233;51.486;6.332;2023-04-19T03:31:16;17.27;;;9.25;;
75639;SDS011;64233;51.486;6.332;2023-04-19T03:33:42;14.52;;;7.88;;
75639;SDS011;64233;51.486;6.332;2023-04-19T03:36:07;12.68;;;6.78;;
75639;SDS011;64233;51.486;6.332;2023-04-19T03:38:33;15.93;;;8.38;;
75639;SDS011;64233;51.486;6.332;2023-04-19T03:40:58;16.08;;;8.65;;
75639;SDS011;64233;51.486;6.332;2023-04-19T03:43:23;9.75;;;6.15;;
75639;SDS011;64233;51.486;6.332;2023-04-19T03:45:49;10.65;;;6.55;;
75639;SDS011;64233;51.486;6.332;2023-04-19T03:48:14;12.35;;;6.72;;
75639;SDS011;64233;51.486;6.332;2023-04-19T03:50:40;15.20;;;7.80;;
75639;SDS011;64233;51.486;6.332;2023-04-19T03:53:05;9.90;;;5.65;;
75639;SDS011;64233;51.486;6.332;2023-04-19T03:55:30;7.28;;;3.42;;
75639;SDS011;64233;51.486;6.332;2023-04-19T03:57:56;5.38;;;4.00;;
75639;SDS011;64233;51.486;6.332;2023-04-19T04:00:21;15.15;;;7.85;;
75639;SDS011;64233;51.486;6.332;2023-04-19T04:02:46;8.73;;;5.78;;
75639;SDS011;64233;51.486;6.332;2023-04-19T04:05:12;15.38;;;7.68;;
75639;SDS011;64233;51.486;6.332;2023-04-19T04:07:38;5.90;;;3.40;;
75639;SDS011;64233;51.486;6.332;2023-04-19T04:10:03;11.32;;;6.90;;
75639;SDS011;64233;51.486;6.332;2023-04-19T04:12:29;13.90;;;7.15;;
75639;SDS011;64233;51.486;6.332;2023-04-19T04:14:54;11.48;;;6.35;;
75639;SDS011;64233;51.486;6.332;2023-04-19T04:17:19;11.13;;;6.97;;
75639;SDS011;64233;51.486;6.332;2023-04-19T04:19:45;8.30;;;5.03;;
75639;SDS011;64233;51.486;6.332;2023-04-19T04:22:10;10.40;;;6.07;;
75639;SDS011;64233;51.486;6.332;2023-04-19T04:24:39;4.10;;;2.50;;
75639;SDS011;64233;51.486;6.332;2023-04-19T04:27:06;7.32;;;3.45;;
75639;SDS011;64233;51.486;6.332;2023-04-19T04:29:34;6.53;;;4.43;;
75639;SDS011;64233;51.486;6.332;2023-04-19T04:32:03;2.35;;;1.85;;
75639;SDS011;64233;51.486;6.332;2023-04-19T04:34:32;7.85;;;4.63;;
75639;SDS011;64233;51.486;6.332;2023-04-19T04:36:57;5.10;;;4.07;;
75639;SDS011;64233;51.486;6.332;2023-04-19T04:39:23;4.32;;;2.78;;
75639;SDS011;64233;51.486;6.332;2023-04-19T04:41:48;6.18;;;3.95;;
75639;SDS011;64233;51.486;6.332;2023-04-19T04:44:14;4.53;;;3.10;;
75639;SDS011;64233;51.486;6.332;2023-04-19T04:46:39;9.52;;;5.05;;
75639;SDS011;64233;51.486;6.332;2023-04-19T04:49:04;7.30;;;4.40;;
75639;SDS011;64233;51.486;6.332;2023-04-19T04:51:30;7.10;;;3.17;;
75639;SDS011;64233;51.486;6.332;2023-04-19T04:53:56;4.65;;;2.83;;
75639;SDS011;64233;51.486;6.332;2023-04-19T04:56:22;4.72;;;3.08;;
75639;SDS011;64233;51.486;6.332;2023-04-19T04:58:47;7.60;;;3.95;;
75639;SDS011;64233;51.486;6.332;2023-04-19T05:01:12;4.78;;;3.15;;
75639;SDS011;64233;51.486;6.332;2023-04-19T05:03:38;5.25;;;3.15;;
75639;SDS011;64233;51.486;6.332;2023-04-19T05:06:03;6.85;;;3.88;;
75639;SDS011;64233;51.486;6.332;2023-04-19T05:08:29;7.60;;;4.80;;
75639;SDS011;64233;51.486;6.332;2023-04-19T05:10:54;4.28;;;3.13;;
75639;SDS011;64233;51.486;6.332;2023-04-19T05:13:19;4.97;;;3.35;;
75639;SDS011;64233;51.486;6.332;2023-04-19T05:15:45;5.72;;;3.53;;
75639;SDS011;64233;51.486;6.332;2023-04-19T05:18:10;5.63;;;3.10;;
75639;SDS011;64233;51.486;6.332;2023-04-19T05:20:35;6.82;;;3.65;;
75639;SDS011;64233;51.486;6.332;2023-04-19T05:23:01;7.57;;;4.68;;
75639;SDS011;64233;51.486;6.332;2023-04-19T05:25:27;3.05;;;2.03;;
75639;SDS011;64233;51.486;6.332;2023-04-19T05:27:53;3.42;;;2.38;;
75639;SDS011;64233;51.486;6.332;2023-04-19T05:30:19;6.80;;;3.35;;
75639;SDS011;64233;51.486;6.332;2023-04-19T05:32:45;3.83;;;2.78;;
75639;SDS011;64233;51.486;6.332;2023-04-19T05:35:10;3.92;;;2.88;;
75639;SDS011;64233;51.486;6.332;2023-04-19T05:37:36;4.28;;;2.55;;
75639;SDS011;64233;51.486;6.332;2023-04-19T05:40:09;7.80;;;4.47;;
75639;SDS011;64233;51.486;6.332;2023-04-19T05:42:41;3.85;;;2.33;;
75639;SDS011;64233;51.486;6.332;2023-04-19T05:45:06;4.32;;;2.42;;
75639;SDS011;64233;51.486;6.332;2023-04-19T05:47:32;6.85;;;4.10;;
75639;SDS011;64233;51.486;6.332;2023-04-19T05:49:57;4.57;;;3.33;;
75639;SDS011;64233;51.486;6.332;2023-04-19T05:52:23;8.20;;;4.43;;
75639;SDS011;64233;51.486;6.332;2023-04-19T05:54:48;9.45;;;4.63;;
75639;SDS011;64233;51.486;6.332;2023-04-19T05:57:13;5.85;;;2.90;;
75639;SDS011;64233;51.486;6.332;2023-04-19T05:59:39;6.43;;;2.83;;
75639;SDS011;64233;51.486;6.332;2023-04-19T06:02:04;5.55;;;3.45;;
75639;SDS011;64233;51.486;6.332;2023-04-19T06:04:29;4.55;;;3.42;;
75639;SDS011;64233;51.486;6.332;2023-04-19T06:06:55;7.55;;;3.63;;
75639;SDS011;64233;51.486;6.332;2023-04-19T06:09:20;3.38;;;2.65;;
75639;SDS011;64233;51.486;6.332;2023-04-19T06:11:45;8.27;;;2.35;;
75639;SDS011;64233;51.486;6.332;2023-04-19T06:14:11;6.28;;;4.00;;
75639;SDS011;64233;51.486;6.332;2023-04-19T06:16:37;6.28;;;4.07;;
75639;SDS011;64233;51.486;6.332;2023-04-19T06:19:03;5.45;;;3.53;;
75639;SDS011;64233;51.486;6.332;2023-04-19T06:21:29;2.42;;;2.17;;
75639;SDS011;64233;51.486;6.332;2023-04-19T06:24:02;5.90;;;2.95;;
75639;SDS011;64233;51.486;6.332;2023-04-19T06:26:34;5.07;;;3.55;;
75639;SDS011;64233;51.486;6.332;2023-04-19T06:28:59;4.70;;;3.78;;
75639;SDS011;64233;51.486;6.332;2023-04-19T06:31:25;5.15;;;3.38;;
75639;SDS011;64233;51.486;6.332;2023-04-19T06:33:50;3.85;;;2.80;;
75639;SDS011;64233;51.486;6.332;2023-04-19T06:36:15;7.10;;;3.85;;
75639;SDS011;64233;51.486;6.332;2023-04-19T06:38:41;5.95;;;4.40;;
75639;SDS011;64233;51.486;6.332;2023-04-19T06:41:08;3.22;;;2.40;;
75639;SDS011;64233;51.486;6.332;2023-04-19T06:43:34;6.28;;;3.75;;
75639;SDS011;64233;51.486;6.332;2023-04-19T06:45:59;4.53;;;2.53;;
75639;SDS011;64233;51.486;6.332;2023-04-19T06:48:25;4.90;;;2.78;;
75639;SDS011;64233;51.486;6.332;2023-04-19T06:50:51;6.68;;;3.45;;
75639;SDS011;64233;51.486;6.332;2023-04-19T06:53:17;4.45;;;3.15;;
75639;SDS011;64233;51.486;6.332;2023-04-19T06:55:43;6.05;;;3.83;;
75639;SDS011;64233;51.486;6.332;2023-04-19T06:58:09;8.75;;;4.15;;
75639;SDS011;64233;51.486;6.332;2023-04-19T07:00:35;6.35;;;3.40;;
75639;SDS011;64233;51.486;6.332;2023-04-19T07:03:00;6.18;;;3.83;;
75639;SDS011;64233;51.486;6.332;2023-04-19T07:05:26;4.70;;;2.13;;
75639;SDS011;64233;51.486;6.332;2023-04-19T07:07:51;5.85;;;3.40;;
75639;SDS011;64233;51.486;6.332;2023-04-19T07:10:17;3.67;;;2.67;;
75639;SDS011;64233;51.486;6.332;2023-04-19T07:12:42;4.65;;;2.80;;
75639;SDS011;64233;51.486;6.332;2023-04-19T07:15:07;5.70;;;2.42;;
75639;SDS011;64233;51.486;6.332;2023-04-19T07:17:34;4.00;;;2.97;;
75639;SDS011;64233;51.486;6.332;2023-04-19T07:20:00;4.68;;;2.40;;
75639;SDS011;64233;51.486;6.332;2023-04-19T07:22:25;3.22;;;2.20;;
75639;SDS011;64233;51.486;6.332;2023-04-19T07:24:50;6.88;;;3.55;;
75639;SDS011;64233;51.486;6.332;2023-04-19T07:27:16;4.88;;;3.33;;
75639;SDS011;64233;51.486;6.332;2023-04-19T07:29:42;4.47;;;3.05;;
75639;SDS011;64233;51.486;6.332;2023-04-19T07:32:08;4.25;;;2.67;;
75639;SDS011;64233;51.486;6.332;2023-04-19T07:34:33;6.00;;;3.35;;
75639;SDS011;64233;51.486;6.332;2023-04-19T07:37:00;2.92;;;2.20;;
75639;SDS011;64233;51.486;6.332;2023-04-19T07:39:25;3.75;;;2.50;;
75639;SDS011;64233;51.486;6.332;2023-04-19T07:41:51;4.65;;;2.53;;
75639;SDS011;64233;51.486;6.332;2023-04-19T07:44:16;2.88;;;1.80;;
75639;SDS011;64233;51.486;6.332;2023-04-19T07:46:42;6.32;;;3.35;;
75639;SDS011;64233;51.486;6.332;2023-04-19T07:49:08;5.15;;;3.97;;
75639;SDS011;64233;51.486;6.332;2023-04-19T07:51:34;6.15;;;3.17;;
75639;SDS011;64233;51.486;6.332;2023-04-19T07:53:59;3.42;;;2.78;;
75639;SDS011;64233;51.486;6.332;2023-04-19T07:56:24;4.22;;;2.88;;
75639;SDS011;64233;51.486;6.332;2023-04-19T07:58:50;3.10;;;2.20;;
75639;SDS011;64233;51.486;6.332;2023-04-19T08:01:16;5.57;;;3.40;;
75639;SDS011;64233;51.486;6.332;2023-04-19T08:03:41;6.80;;;3.72;;
75639;SDS011;64233;51.486;6.332;2023-04-19T08:06:06;4.35;;;2.78;;
75639;SDS011;64233;51.486;6.332;2023-04-19T08:08:36;5.90;;;3.45;;
75639;SDS011;64233;51.486;6.332;2023-04-19T08:11:02;2.60;;;1.88;;
75639;SDS011;64233;51.486;6.332;2023-04-19T08:13:28;4.95;;;3.28;;
75639;SDS011;64233;51.486;6.332;2023-04-19T08:15:53;4.13;;;3.15;;
75639;SDS011;64233;51.486;6.332;2023-04-19T08:18:19;4.65;;;2.45;;
75639;SDS011;64233;51.486;6.332;2023-04-19T08:20:45;2.53;;;2.33;;
75639;SDS011;64233;51.486;6.332;2023-04-19T08:23:11;4.10;;;1.55;;
75639;SDS011;64233;51.486;6.332;2023-04-19T08:25:36;3.10;;;2.45;;
75639;SDS011;64233;51.486;6.332;2023-04-19T08:28:02;3.65;;;2.00;;
75639;SDS011;64233;51.486;6.332;2023-04-19T08:30:27;4.25;;;2.70;;
75639;SDS011;64233;51.486;6.332;2023-04-19T08:32:52;5.05;;;3.10;;
75639;SDS011;64233;51.486;6.332;2023-04-19T08:35:18;4.38;;;2.67;;
75639;SDS011;64233;51.486;6.332;2023-04-19T08:37:44;6.07;;;1.98;;
75639;SDS011;64233;51.486;6.332;2023-04-19T08:40:10;3.85;;;2.53;;
75639;SDS011;64233;51.486;6.332;2023-04-19T08:42:35;5.25;;;2.30;;
75639;SDS011;64233;51.486;6.332;2023-04-19T08:45:01;3.72;;;1.83;;
75639;SDS011;64233;51.486;6.332;2023-04-19T08:47:31;4.30;;;2.53;;
75639;SDS011;64233;51.486;6.332;2023-04-19T08:49:57;5.93;;;2.70;;
75639;SDS011;64233;51.486;6.332;2023-04-19T08:52:24;4.18;;;2.25;;
75639;SDS011;64233;51.486;6.332;2023-04-19T08:54:52;2.17;;;1.45;;
75639;SDS011;64233;51.486;6.332;2023-04-19T08:57:19;5.55;;;2.50;;
75639;SDS011;64233;51.486;6.332;2023-04-19T08:59:44;5.70;;;2.65;;
75639;SDS011;64233;51.486;6.332;2023-04-19T09:02:13;5.60;;;3.13;;
75639;SDS011;64233;51.486;6.332;2023-04-19T09:04:39;6.70;;;3.10;;
75639;SDS011;64233;51.486;6.332;2023-04-19T09:07:04;3.03;;;2.33;;
75639;SDS011;64233;51.486;6.332;2023-04-19T09:09:30;3.75;;;2.58;;
75639;SDS011;64233;51.486;6.332;2023-04-19T09:11:55;3.67;;;1.38;;
75639;SDS011;64233;51.486;6.332;2023-04-19T09:14:24;2.05;;;1.42;;
75639;SDS011;64233;51.486;6.332;2023-04-19T09:16:50;1.55;;;1.10;;
75639;SDS011;64233;51.486;6.332;2023-04-19T09:19:16;2.13;;;1.38;;
75639;SDS011;64233;51.486;6.332;2023-04-19T09:21:42;2.17;;;1.65;;
75639;SDS011;64233;51.486;6.332;2023-04-19T09:24:08;2.70;;;1.90;;
75639;SDS011;64233;51.486;6.332;2023-04-19T09:26:34;1.45;;;1.35;;
75639;SDS011;64233;51.486;6.332;2023-04-19T09:29:03;2.95;;;1.73;;
75639;SDS011;64233;51.486;6.332;2023-04-19T09:31:31;2.55;;;1.80;;
75639;SDS011;64233;51.486;6.332;2023-04-19T09:34:13;2.63;;;1.50;;
75639;SDS011;64233;51.486;6.332;2023-04-19T09:36:39;2.83;;;2.05;;
75639;SDS011;64233;51.486;6.332;2023-04-19T09:39:05;3.42;;;2.50;;
75639;SDS011;64233;51.486;6.332;2023-04-19T09:41:31;4.80;;;2.03;;
75639;SDS011;64233;51.486;6.332;2023-04-19T09:44:11;1.77;;;1.17;;
75639;SDS011;64233;51.486;6.332;2023-04-19T09:46:39;3.72;;;3.00;;
75639;SDS011;64233;51.486;6.332;2023-04-19T09:51:41;2.08;;;1.00;;
75639;SDS011;64233;51.486;6.332;2023-04-19T09:54:08;2.13;;;1.23;;
75639;SDS011;64233;51.486;6.332;2023-04-19T09:56:35;4.50;;;1.48;;
75639;SDS011;64233;51.486;6.332;2023-04-19T09:59:04;1.17;;;1.08;;
75639;SDS011;64233;51.486;6.332;2023-04-19T10:01:34;1.10;;;1.00;;
75639;SDS011;64233;51.486;6.332;2023-04-19T10:04:03;2.55;;;1.63;;
75639;SDS011;64233;51.486;6.332;2023-04-19T10:06:30;3.60;;;1.30;;
75639;SDS011;64233;51.486;6.332;2023-04-19T10:08:56;0.98;;;0.90;;
75639;SDS011;64233;51.486;6.332;2023-04-19T10:11:25;2.60;;;1.25;;
75639;SDS011;64233;51.486;6.332;2023-04-19T10:13:56;3.45;;;1.50;;
75639;SDS011;64233;51.486;6.332;2023-04-19T10:16:24;2.58;;;1.67;;
75639;SDS011;64233;51.486;6.332;2023-04-19T10:18:50;1.92;;;1.70;;
75639;SDS011;64233;51.486;6.332;2023-04-19T10:21:16;1.50;;;1.10;;
75639;SDS011;64233;51.486;6.332;2023-04-19T10:23:43;1.88;;;1.20;;
75639;SDS011;64233;51.486;6.332;2023-04-19T10:26:09;1.83;;;1.15;;
75639;SDS011;64233;51.486;6.332;2023-04-19T10:28:35;1.33;;;0.80;;
75639;SDS011;64233;51.486;6.332;2023-04-19T10:31:01;1.95;;;1.08;;
75639;SDS011;64233;51.486;6.332;2023-04-19T10:33:28;2.13;;;1.10;;
75639;SDS011;64233;51.486;6.332;2023-04-19T10:35:56;3.63;;;1.73;;
75639;SDS011;64233;51.486;6.332;2023-04-19T10:41:17;5.43;;;1.77;;
75639;SDS011;64233;51.486;6.332;2023-04-19T10:43:44;1.38;;;1.00;;
75639;SDS011;64233;51.486;6.332;2023-04-19T10:48:59;3.22;;;0.85;;
75639;SDS011;64233;51.486;6.332;2023-04-19T10:51:26;1.25;;;0.98;;
75639;SDS011;64233;51.486;6.332;2023-04-19T11:04:03;1.33;;;1.10;;
75639;SDS011;64233;51.486;6.332;2023-04-19T11:06:29;1.70;;;1.38;;
75639;SDS011;64233;51.486;6.332;2023-04-19T11:08:54;1.63;;;1.30;;
75639;SDS011;64233;51.486;6.332;2023-04-19T11:11:20;3.28;;;1.52;;
75639;SDS011;64233;51.486;6.332;2023-04-19T11:13:46;3.80;;;1.77;;
75639;SDS011;64233;51.486;6.332;2023-04-19T11:16:12;2.42;;;1.50;;
75639;SDS011;64233;51.486;6.332;2023-04-19T11:18:37;2.97;;;1.48;;
75639;SDS011;64233;51.486;6.332;2023-04-19T11:21:03;1.52;;;1.15;;
75639;SDS011;64233;51.486;6.332;2023-04-19T11:23:29;1.75;;;1.15;;
75639;SDS011;64233;51.486;6.332;2023-04-19T11:25:54;1.35;;;1.10;;
75639;SDS011;64233;51.486;6.332;2023-04-19T11:28:19;3.35;;;1.38;;
75639;SDS011;64233;51.486;6.332;2023-04-19T11:30:45;0.98;;;0.90;;
75639;SDS011;64233;51.486;6.332;2023-04-19T11:33:11;2.95;;;1.20;;
75639;SDS011;64233;51.486;6.332;2023-04-19T11:35:37;2.08;;;1.13;;
75639;SDS011;64233;51.486;6.332;2023-04-19T11:38:02;2.00;;;1.38;;
75639;SDS011;64233;51.486;6.332;2023-04-19T11:40:29;2.85;;;1.38;;
75639;SDS011;64233;51.486;6.332;2023-04-19T11:42:58;2.30;;;1.58;;
75639;SDS011;64233;51.486;6.332;2023-04-19T11:45:27;3.50;;;1.63;;
75639;SDS011;64233;51.486;6.332;2023-04-19T11:47:54;1.65;;;1.30;;
75639;SDS011;64233;51.486;6.332;2023-04-19T11:50:36;3.90;;;1.35;;
75639;SDS011;64233;51.486;6.332;2023-04-19T11:53:09;1.50;;;0.98;;
75639;SDS011;64233;51.486;6.332;2023-04-19T11:55:35;1.52;;;1.15;;
75639;SDS011;64233;51.486;6.332;2023-04-19T11:58:00;4.80;;;1.42;;
75639;SDS011;64233;51.486;6.332;2023-04-19T12:00:26;3.58;;;1.90;;
75639;SDS011;64233;51.486;6.332;2023-04-19T12:02:53;1.08;;;0.90;;
75639;SDS011;64233;51.486;6.332;2023-04-19T12:05:18;2.20;;;1.15;;
75639;SDS011;64233;51.486;6.332;2023-04-19T12:08:00;4.90;;;1.58;;
75639;SDS011;64233;51.486;6.332;2023-04-19T12:10:27;5.18;;;1.27;;
75639;SDS011;64233;51.486;6.332;2023-04-19T12:12:53;2.38;;;1.80;;
75639;SDS011;64233;51.486;6.332;2023-04-19T12:15:18;2.00;;;1.45;;
75639;SDS011;64233;51.486;6.332;2023-04-19T12:20:35;1.02;;;0.93;;
75639;SDS011;64233;51.486;6.332;2023-04-19T12:23:02;1.65;;;1.33;;
75639;SDS011;64233;51.486;6.332;2023-04-19T12:25:32;2.13;;;1.00;;
75639;SDS011;64233;51.486;6.332;2023-04-19T12:27:58;4.80;;;2.00;;
75639;SDS011;64233;51.486;6.332;2023-04-19T12:30:25;1.25;;;1.15;;
75639;SDS011;64233;51.486;6.332;2023-04-19T12:32:51;3.90;;;1.80;;
75639;SDS011;64233;51.486;6.332;2023-04-19T12:35:20;1.92;;;0.95;;
75639;SDS011;64233;51.486;6.332;2023-04-19T12:37:49;1.05;;;0.95;;
75639;SDS011;64233;51.486;6.332;2023-04-19T12:40:14;1.20;;;0.82;;
75639;SDS011;64233;51.486;6.332;2023-04-19T12:42:40;2.10;;;1.40;;
75639;SDS011;64233;51.486;6.332;2023-04-19T12:45:05;2.45;;;1.45;;
75639;SDS011;64233;51.486;6.332;2023-04-19T12:47:31;3.78;;;1.13;;
75639;SDS011;64233;51.486;6.332;2023-04-19T12:49:56;1.83;;;1.25;;
75639;SDS011;64233;51.486;6.332;2023-04-19T12:52:22;2.30;;;1.80;;
75639;SDS011;64233;51.486;6.332;2023-04-19T12:54:47;3.50;;;1.75;;
75639;SDS011;64233;51.486;6.332;2023-04-19T12:57:13;2.83;;;1.20;;
75639;SDS011;64233;51.486;6.332;2023-04-19T12:59:38;2.00;;;1.23;;
75639;SDS011;64233;51.486;6.332;2023-04-19T13:02:04;1.98;;;1.38;;
75639;SDS011;64233;51.486;6.332;2023-04-19T13:04:30;2.22;;;1.73;;
75639;SDS011;64233;51.486;6.332;2023-04-19T13:06:55;1.30;;;1.08;;
75639;SDS011;64233;51.486;6.332;2023-04-19T13:09:20;1.40;;;1.25;;
75639;SDS011;64233;51.486;6.332;2023-04-19T13:11:46;1.83;;;1.67;;
75639;SDS011;64233;51.486;6.332;2023-04-19T13:14:11;2.08;;;1.45;;
75639;SDS011;64233;51.486;6.332;2023-04-19T13:16:36;4.78;;;2.20;;
75639;SDS011;64233;51.486;6.332;2023-04-19T13:19:02;4.10;;;2.47;;
75639;SDS011;64233;51.486;6.332;2023-04-19T13:21:27;1.98;;;1.48;;
75639;SDS011;64233;51.486;6.332;2023-04-19T13:23:52;2.85;;;1.35;;
75639;SDS011;64233;51.486;6.332;2023-04-19T13:26:18;3.33;;;1.38;;
75639;SDS011;64233;51.486;6.332;2023-04-19T13:28:43;1.85;;;1.35;;
75639;SDS011;64233;51.486;6.332;2023-04-19T13:31:09;1.23;;;1.13;;
75639;SDS011;64233;51.486;6.332;2023-04-19T13:33:35;3.25;;;1.85;;
75639;SDS011;64233;51.486;6.332;2023-04-19T13:36:00;1.52;;;1.02;;
75639;SDS011;64233;51.486;6.332;2023-04-19T13:38:26;3.55;;;1.77;;
75639;SDS011;64233;51.486;6.332;2023-04-19T13:40:51;3.05;;;1.58;;
75639;SDS011;64233;51.486;6.332;2023-04-19T13:43:17;4.25;;;2.22;;
75639;SDS011;64233;51.486;6.332;2023-04-19T13:45:42;1.80;;;1.33;;
75639;SDS011;64233;51.486;6.332;2023-04-19T13:48:07;6.50;;;2.17;;
75639;SDS011;64233;51.486;6.332;2023-04-19T13:50:33;2.65;;;1.67;;
75639;SDS011;64233;51.486;6.332;2023-04-19T13:52:58;2.38;;;1.63;;
75639;SDS011;64233;51.486;6.332;2023-04-19T13:55:24;3.40;;;2.17;;
75639;SDS011;64233;51.486;6.332;2023-04-19T13:57:51;2.47;;;2.05;;
75639;SDS011;64233;51.486;6.332;2023-04-19T14:00:16;3.58;;;2.13;;
75639;SDS011;64233;51.486;6.332;2023-04-19T14:02:42;6.28;;;2.20;;
75639;SDS011;64233;51.486;6.332;2023-04-19T14:05:09;7.65;;;3.20;;
75639;SDS011;64233;51.486;6.332;2023-04-19T14:07:37;8.65;;;2.75;;
75639;SDS011;64233;51.486;6.332;2023-04-19T14:10:03;1.90;;;0.80;;
75639;SDS011;64233;51.486;6.332;2023-04-19T14:12:30;5.97;;;2.80;;
75639;SDS011;64233;51.486;6.332;2023-04-19T14:14:56;3.10;;;2.00;;
75639;SDS011;64233;51.486;6.332;2023-04-19T14:17:21;9.77;;;2.25;;
75639;SDS011;64233;51.486;6.332;2023-04-19T14:19:46;3.33;;;1.95;;
75639;SDS011;64233;51.486;6.332;2023-04-19T14:22:12;4.57;;;2.42;;
75639;SDS011;64233;51.486;6.332;2023-04-19T14:24:37;3.70;;;1.70;;
75639;SDS011;64233;51.486;6.332;2023-04-19T14:27:02;2.03;;;1.50;;
75639;SDS011;64233;51.486;6.332;2023-04-19T14:29:27;1.00;;;0.90;;
75639;SDS011;64233;51.486;6.332;2023-04-19T14:31:53;4.20;;;1.88;;
75639;SDS011;64233;51.486;6.332;2023-04-19T14:34:18;0.98;;;0.90;;
75639;SDS011;64233;51.486;6.332;2023-04-19T14:36:43;3.30;;;2.28;;
75639;SDS011;64233;51.486;6.332;2023-04-19T14:39:09;3.58;;;2.05;;
75639;SDS011;64233;51.486;6.332;2023-04-19T14:41:34;3.30;;;1.95;;
75639;SDS011;64233;51.486;6.332;2023-04-19T14:43:59;2.47;;;1.88;;
75639;SDS011;64233;51.486;6.332;2023-04-19T14:46:24;2.72;;;1.65;;
75639;SDS011;64233;51.486;6.332;2023-04-19T14:48:50;13.57;;;2.38;;
75639;SDS011;64233;51.486;6.332;2023-04-19T14:51:15;2.60;;;1.40;;
75639;SDS011;64233;51.486;6.332;2023-04-19T14:53:40;3.15;;;1.80;;
75639;SDS011;64233;51.486;6.332;2023-04-19T14:56:06;4.10;;;2.57;;